MET'MAP v2.0
soon released !

Expected late october,
this new version will be
more efficient, smarter,
and hosted on a brand new
server x3 powerfull...
...and still free !


Not compatible ?
Try the mobile version !

LOG IN : | Subscribe | Disclaimer | Who is Orbifly ? |
ICAO code :

TAF - EGXT RAF Wittering Stamford - 30 Mar 2020 19:29 UTC
Data Sources :     NOAA   


- Airport Elevation : 273 ft
- No reported NOTAMs.


EGXT - RAF Wittering Stamford

Latest METAR recorded : 2015/08/11 07:50 EGXT 110750Z 30005KT CAVOK 15/11 Q1019 BLU
TAF TAF EGXT
Valid from the 30 at 12:00 until the 30 at 18:00 UTC


301039Z 3012/3018 02014KT 9999 FEW018 BKN045
TEMPO 3012/3018 03015G25KT BKN018
PROB30
TEMPO 3012/3018 7000 SHRA SCT014 BKN020

Source NOAA


MET'MAP, your aeronautical weather chart ! - Copyright ORBIFLY December 2007

Programming & Development : Alexandra Zaïnal
Co-Developer : Marc-Olivier Méhu
Technical & hardware support : Manuel Goepfert
Concept & Financing : Baudouin d'Aumeries